sensor_id;sensor_type;location;lat;lon;timestamp;P1;durP1;ratioP1;P2;durP2;ratioP2
4089;SDS011;2059;48.538;12.146;2022-07-18T00:03:24;4.27;;;3.90;;
4089;SDS011;2059;48.538;12.146;2022-07-18T00:08:26;4.10;;;3.80;;
4089;SDS011;2059;48.538;12.146;2022-07-18T00:13:28;4.90;;;4.60;;
4089;SDS011;2059;48.538;12.146;2022-07-18T00:18:38;3.73;;;3.53;;
4089;SDS011;2059;48.538;12.146;2022-07-18T00:23:40;4.20;;;3.90;;
4089;SDS011;2059;48.538;12.146;2022-07-18T00:28:42;5.60;;;5.17;;
4089;SDS011;2059;48.538;12.146;2022-07-18T00:33:45;4.63;;;4.10;;
4089;SDS011;2059;48.538;12.146;2022-07-18T00:38:47;4.00;;;3.80;;
4089;SDS011;2059;48.538;12.146;2022-07-18T00:43:49;4.33;;;4.00;;
4089;SDS011;2059;48.538;12.146;2022-07-18T00:48:53;4.17;;;3.90;;
4089;SDS011;2059;48.538;12.146;2022-07-18T00:53:55;6.17;;;5.77;;
4089;SDS011;2059;48.538;12.146;2022-07-18T00:58:57;4.30;;;4.00;;
4089;SDS011;2059;48.538;12.146;2022-07-18T01:04:00;5.90;;;5.50;;
4089;SDS011;2059;48.538;12.146;2022-07-18T01:09:02;4.47;;;4.07;;
4089;SDS011;2059;48.538;12.146;2022-07-18T01:14:05;5.50;;;5.10;;
4089;SDS011;2059;48.538;12.146;2022-07-18T01:19:11;4.60;;;4.30;;
4089;SDS011;2059;48.538;12.146;2022-07-18T01:24:17;5.87;;;5.40;;
4089;SDS011;2059;48.538;12.146;2022-07-18T01:29:19;4.47;;;4.17;;
4089;SDS011;2059;48.538;12.146;2022-07-18T01:34:21;4.67;;;4.17;;
4089;SDS011;2059;48.538;12.146;2022-07-18T01:39:24;4.30;;;4.00;;
4089;SDS011;2059;48.538;12.146;2022-07-18T01:44:27;6.57;;;6.17;;
4089;SDS011;2059;48.538;12.146;2022-07-18T01:49:30;4.93;;;4.57;;
4089;SDS011;2059;48.538;12.146;2022-07-18T01:54:34;4.50;;;4.20;;
4089;SDS011;2059;48.538;12.146;2022-07-18T01:59:37;4.70;;;4.30;;
4089;SDS011;2059;48.538;12.146;2022-07-18T02:04:39;4.73;;;4.43;;
4089;SDS011;2059;48.538;12.146;2022-07-18T02:10:15;6.47;;;4.60;;
4089;SDS011;2059;48.538;12.146;2022-07-18T02:15:18;4.50;;;4.20;;
4089;SDS011;2059;48.538;12.146;2022-07-18T02:20:20;4.47;;;4.07;;
4089;SDS011;2059;48.538;12.146;2022-07-18T02:25:24;4.40;;;4.10;;
4089;SDS011;2059;48.538;12.146;2022-07-18T02:30:25;5.13;;;4.63;;
4089;SDS011;2059;48.538;12.146;2022-07-18T02:35:27;4.93;;;4.63;;
4089;SDS011;2059;48.538;12.146;2022-07-18T02:40:31;4.63;;;4.23;;
4089;SDS011;2059;48.538;12.146;2022-07-18T02:45:33;5.10;;;4.80;;
4089;SDS011;2059;48.538;12.146;2022-07-18T02:50:34;4.63;;;4.20;;
4089;SDS011;2059;48.538;12.146;2022-07-18T02:55:38;4.90;;;4.57;;
4089;SDS011;2059;48.538;12.146;2022-07-18T03:00:40;4.70;;;4.40;;
4089;SDS011;2059;48.538;12.146;2022-07-18T03:05:42;8.87;;;4.67;;
4089;SDS011;2059;48.538;12.146;2022-07-18T03:10:45;6.97;;;6.27;;
4089;SDS011;2059;48.538;12.146;2022-07-18T03:15:46;4.63;;;4.33;;
4089;SDS011;2059;48.538;12.146;2022-07-18T03:20:48;5.60;;;4.30;;
4089;SDS011;2059;48.538;12.146;2022-07-18T03:25:51;7.00;;;6.30;;
4089;SDS011;2059;48.538;12.146;2022-07-18T03:30:53;6.80;;;6.30;;
4089;SDS011;2059;48.538;12.146;2022-07-18T03:35:58;7.70;;;6.60;;
4089;SDS011;2059;48.538;12.146;2022-07-18T03:41:02;7.23;;;6.67;;
4089;SDS011;2059;48.538;12.146;2022-07-18T03:46:04;5.70;;;5.20;;
4089;SDS011;2059;48.538;12.146;2022-07-18T03:51:06;8.53;;;5.03;;
4089;SDS011;2059;48.538;12.146;2022-07-18T03:56:09;7.27;;;6.67;;
4089;SDS011;2059;48.538;12.146;2022-07-18T04:01:11;5.90;;;5.27;;
4089;SDS011;2059;48.538;12.146;2022-07-18T04:06:13;9.17;;;5.67;;
4089;SDS011;2059;48.538;12.146;2022-07-18T04:11:16;7.47;;;6.97;;
4089;SDS011;2059;48.538;12.146;2022-07-18T04:16:19;8.10;;;7.50;;
4089;SDS011;2059;48.538;12.146;2022-07-18T04:21:22;8.27;;;7.63;;
4089;SDS011;2059;48.538;12.146;2022-07-18T04:26:25;7.97;;;7.37;;
4089;SDS011;2059;48.538;12.146;2022-07-18T04:31:27;8.20;;;7.17;;
4089;SDS011;2059;48.538;12.146;2022-07-18T04:36:29;7.90;;;7.13;;
4089;SDS011;2059;48.538;12.146;2022-07-18T04:41:32;8.63;;;7.83;;
4089;SDS011;2059;48.538;12.146;2022-07-18T04:46:34;9.17;;;8.30;;
4089;SDS011;2059;48.538;12.146;2022-07-18T04:51:36;8.33;;;7.73;;
4089;SDS011;2059;48.538;12.146;2022-07-18T04:56:39;9.43;;;7.67;;
4089;SDS011;2059;48.538;12.146;2022-07-18T05:01:41;13.33;;;7.90;;
4089;SDS011;2059;48.538;12.146;2022-07-18T05:06:42;9.87;;;8.77;;
4089;SDS011;2059;48.538;12.146;2022-07-18T05:11:46;9.43;;;8.00;;
4089;SDS011;2059;48.538;12.146;2022-07-18T05:16:47;10.67;;;8.00;;
4089;SDS011;2059;48.538;12.146;2022-07-18T05:21:49;8.40;;;7.83;;
4089;SDS011;2059;48.538;12.146;2022-07-18T05:26:53;9.97;;;9.20;;
4089;SDS011;2059;48.538;12.146;2022-07-18T05:31:54;8.73;;;7.93;;
4089;SDS011;2059;48.538;12.146;2022-07-18T05:36:57;10.10;;;9.03;;
4089;SDS011;2059;48.538;12.146;2022-07-18T05:42:00;8.80;;;8.10;;
4089;SDS011;2059;48.538;12.146;2022-07-18T05:47:02;11.63;;;9.00;;
4089;SDS011;2059;48.538;12.146;2022-07-18T05:52:04;9.87;;;8.97;;
4089;SDS011;2059;48.538;12.146;2022-07-18T05:57:08;12.20;;;9.93;;
4089;SDS011;2059;48.538;12.146;2022-07-18T06:02:10;10.70;;;8.97;;
4089;SDS011;2059;48.538;12.146;2022-07-18T06:07:12;10.80;;;9.70;;
4089;SDS011;2059;48.538;12.146;2022-07-18T06:12:15;9.50;;;8.67;;
4089;SDS011;2059;48.538;12.146;2022-07-18T06:17:17;10.90;;;9.43;;
4089;SDS011;2059;48.538;12.146;2022-07-18T06:22:19;8.90;;;8.20;;
4089;SDS011;2059;48.538;12.146;2022-07-18T06:27:22;9.67;;;8.80;;
4089;SDS011;2059;48.538;12.146;2022-07-18T06:32:24;9.33;;;6.50;;
4089;SDS011;2059;48.538;12.146;2022-07-18T06:37:26;11.43;;;6.17;;
4089;SDS011;2059;48.538;12.146;2022-07-18T06:42:29;6.87;;;5.57;;
4089;SDS011;2059;48.538;12.146;2022-07-18T06:47:31;9.30;;;6.20;;
4089;SDS011;2059;48.538;12.146;2022-07-18T06:52:33;6.00;;;5.50;;
4089;SDS011;2059;48.538;12.146;2022-07-18T06:57:37;6.10;;;5.60;;
4089;SDS011;2059;48.538;12.146;2022-07-18T07:02:40;8.27;;;7.43;;
4089;SDS011;2059;48.538;12.146;2022-07-18T07:07:42;7.57;;;6.87;;
4089;SDS011;2059;48.538;12.146;2022-07-18T07:12:47;9.03;;;5.93;;
4089;SDS011;2059;48.538;12.146;2022-07-18T07:17:50;8.13;;;7.43;;
4089;SDS011;2059;48.538;12.146;2022-07-18T07:22:53;8.13;;;7.43;;
4089;SDS011;2059;48.538;12.146;2022-07-18T07:27:58;7.53;;;6.03;;
4089;SDS011;2059;48.538;12.146;2022-07-18T07:33:00;6.03;;;5.50;;
4089;SDS011;2059;48.538;12.146;2022-07-18T07:38:03;5.20;;;4.80;;
4089;SDS011;2059;48.538;12.146;2022-07-18T07:43:07;6.63;;;4.83;;
4089;SDS011;2059;48.538;12.146;2022-07-18T07:48:11;11.63;;;5.80;;
4089;SDS011;2059;48.538;12.146;2022-07-18T07:53:13;5.60;;;5.10;;
4089;SDS011;2059;48.538;12.146;2022-07-18T07:58:16;8.07;;;6.50;;
4089;SDS011;2059;48.538;12.146;2022-07-18T08:03:18;8.57;;;4.60;;
4089;SDS011;2059;48.538;12.146;2022-07-18T08:08:19;7.50;;;6.80;;
4089;SDS011;2059;48.538;12.146;2022-07-18T08:13:23;6.03;;;5.53;;
4089;SDS011;2059;48.538;12.146;2022-07-18T08:18:24;8.03;;;5.17;;
4089;SDS011;2059;48.538;12.146;2022-07-18T08:23:26;5.90;;;4.80;;
4089;SDS011;2059;48.538;12.146;2022-07-18T08:28:29;5.60;;;4.83;;
4089;SDS011;2059;48.538;12.146;2022-07-18T08:33:31;7.67;;;6.23;;
4089;SDS011;2059;48.538;12.146;2022-07-18T08:38:33;8.73;;;4.70;;
4089;SDS011;2059;48.538;12.146;2022-07-18T08:43:36;4.63;;;4.20;;
4089;SDS011;2059;48.538;12.146;2022-07-18T08:48:38;5.30;;;4.40;;
4089;SDS011;2059;48.538;12.146;2022-07-18T08:53:41;4.23;;;3.93;;
4089;SDS011;2059;48.538;12.146;2022-07-18T08:58:44;9.87;;;4.07;;
4089;SDS011;2059;48.538;12.146;2022-07-18T09:03:46;4.50;;;4.13;;
4089;SDS011;2059;48.538;12.146;2022-07-18T09:09:08;3.93;;;3.73;;
4089;SDS011;2059;48.538;12.146;2022-07-18T09:14:20;4.57;;;4.27;;
4089;SDS011;2059;48.538;12.146;2022-07-18T09:19:32;4.90;;;4.60;;
4089;SDS011;2059;48.538;12.146;2022-07-18T09:24:39;4.53;;;3.93;;
4089;SDS011;2059;48.538;12.146;2022-07-18T09:35:21;3.90;;;3.50;;
4089;SDS011;2059;48.538;12.146;2022-07-18T09:40:25;4.00;;;3.80;;
4089;SDS011;2059;48.538;12.146;2022-07-18T09:45:29;4.40;;;3.40;;
4089;SDS011;2059;48.538;12.146;2022-07-18T09:50:35;5.40;;;5.10;;
4089;SDS011;2059;48.538;12.146;2022-07-18T09:55:44;6.73;;;4.80;;
4089;SDS011;2059;48.538;12.146;2022-07-18T10:00:47;4.77;;;4.57;;
4089;SDS011;2059;48.538;12.146;2022-07-18T10:05:52;5.17;;;4.93;;
4089;SDS011;2059;48.538;12.146;2022-07-18T10:10:55;10.57;;;5.40;;
4089;SDS011;2059;48.538;12.146;2022-07-18T10:15:59;5.43;;;4.90;;
4089;SDS011;2059;48.538;12.146;2022-07-18T10:21:04;5.23;;;4.93;;
4089;SDS011;2059;48.538;12.146;2022-07-18T10:26:10;5.37;;;5.07;;
4089;SDS011;2059;48.538;12.146;2022-07-18T10:31:15;5.70;;;5.20;;
4089;SDS011;2059;48.538;12.146;2022-07-18T10:36:19;5.30;;;5.00;;
4089;SDS011;2059;48.538;12.146;2022-07-18T10:41:22;5.57;;;5.27;;
4089;SDS011;2059;48.538;12.146;2022-07-18T10:51:32;3.13;;;3.03;;
4089;SDS011;2059;48.538;12.146;2022-07-18T11:02:11;3.23;;;3.13;;
4089;SDS011;2059;48.538;12.146;2022-07-18T11:07:15;3.93;;;3.70;;
4089;SDS011;2059;48.538;12.146;2022-07-18T11:12:17;5.23;;;3.20;;
4089;SDS011;2059;48.538;12.146;2022-07-18T11:17:30;3.60;;;3.30;;
4089;SDS011;2059;48.538;12.146;2022-07-18T11:22:57;3.30;;;3.10;;
4089;SDS011;2059;48.538;12.146;2022-07-18T11:27:58;3.60;;;3.30;;
4089;SDS011;2059;48.538;12.146;2022-07-18T11:33:00;5.67;;;3.07;;
4089;SDS011;2059;48.538;12.146;2022-07-18T11:38:04;3.93;;;3.67;;
4089;SDS011;2059;48.538;12.146;2022-07-18T11:43:06;3.50;;;3.30;;
4089;SDS011;2059;48.538;12.146;2022-07-18T11:48:08;3.60;;;3.30;;
4089;SDS011;2059;48.538;12.146;2022-07-18T11:53:11;4.17;;;3.50;;
4089;SDS011;2059;48.538;12.146;2022-07-18T11:58:15;3.20;;;3.00;;
4089;SDS011;2059;48.538;12.146;2022-07-18T12:03:19;3.67;;;3.47;;
4089;SDS011;2059;48.538;12.146;2022-07-18T12:08:27;3.37;;;3.27;;
4089;SDS011;2059;48.538;12.146;2022-07-18T12:13:43;3.70;;;3.50;;
4089;SDS011;2059;48.538;12.146;2022-07-18T12:18:48;3.63;;;3.33;;
4089;SDS011;2059;48.538;12.146;2022-07-18T12:23:51;4.80;;;3.30;;
4089;SDS011;2059;48.538;12.146;2022-07-18T12:29:03;3.50;;;3.20;;
4089;SDS011;2059;48.538;12.146;2022-07-18T12:34:09;3.00;;;2.90;;
4089;SDS011;2059;48.538;12.146;2022-07-18T12:39:13;4.03;;;3.20;;
4089;SDS011;2059;48.538;12.146;2022-07-18T12:44:25;3.40;;;3.10;;
4089;SDS011;2059;48.538;12.146;2022-07-18T12:49:27;3.43;;;3.23;;
4089;SDS011;2059;48.538;12.146;2022-07-18T12:54:30;3.70;;;3.40;;
4089;SDS011;2059;48.538;12.146;2022-07-18T12:59:32;3.40;;;3.20;;
4089;SDS011;2059;48.538;12.146;2022-07-18T13:04:34;3.47;;;3.17;;
4089;SDS011;2059;48.538;12.146;2022-07-18T13:09:37;3.27;;;3.17;;
4089;SDS011;2059;48.538;12.146;2022-07-18T13:14:39;3.07;;;2.97;;
4089;SDS011;2059;48.538;12.146;2022-07-18T13:19:40;4.70;;;4.30;;
4089;SDS011;2059;48.538;12.146;2022-07-18T13:24:43;4.80;;;4.50;;
4089;SDS011;2059;48.538;12.146;2022-07-18T13:29:45;4.93;;;4.63;;
4089;SDS011;2059;48.538;12.146;2022-07-18T13:34:47;3.37;;;3.17;;
4089;SDS011;2059;48.538;12.146;2022-07-18T13:39:50;3.13;;;2.93;;
4089;SDS011;2059;48.538;12.146;2022-07-18T13:44:52;3.60;;;3.40;;
4089;SDS011;2059;48.538;12.146;2022-07-18T13:49:54;3.60;;;3.30;;
4089;SDS011;2059;48.538;12.146;2022-07-18T13:54:57;2.93;;;2.83;;
4089;SDS011;2059;48.538;12.146;2022-07-18T13:59:59;3.17;;;3.07;;
4089;SDS011;2059;48.538;12.146;2022-07-18T14:05:00;2.90;;;2.80;;
4089;SDS011;2059;48.538;12.146;2022-07-18T14:10:04;3.33;;;3.13;;
4089;SDS011;2059;48.538;12.146;2022-07-18T14:15:06;5.00;;;4.70;;
4089;SDS011;2059;48.538;12.146;2022-07-18T14:20:09;5.57;;;4.53;;
4089;SDS011;2059;48.538;12.146;2022-07-18T14:25:15;4.77;;;4.37;;
4089;SDS011;2059;48.538;12.146;2022-07-18T14:30:18;3.30;;;3.17;;
4089;SDS011;2059;48.538;12.146;2022-07-18T14:35:20;4.77;;;4.37;;
4089;SDS011;2059;48.538;12.146;2022-07-18T14:40:23;3.60;;;3.40;;
4089;SDS011;2059;48.538;12.146;2022-07-18T14:45:25;3.27;;;3.17;;
4089;SDS011;2059;48.538;12.146;2022-07-18T14:50:27;3.63;;;3.20;;
4089;SDS011;2059;48.538;12.146;2022-07-18T14:55:30;3.40;;;3.23;;
4089;SDS011;2059;48.538;12.146;2022-07-18T15:00:32;3.60;;;3.33;;
4089;SDS011;2059;48.538;12.146;2022-07-18T15:05:34;5.70;;;5.30;;
4089;SDS011;2059;48.538;12.146;2022-07-18T15:10:37;5.10;;;4.90;;
4089;SDS011;2059;48.538;12.146;2022-07-18T15:15:39;5.80;;;5.40;;
4089;SDS011;2059;48.538;12.146;2022-07-18T15:20:41;5.47;;;5.17;;
4089;SDS011;2059;48.538;12.146;2022-07-18T15:25:44;6.07;;;5.43;;
4089;SDS011;2059;48.538;12.146;2022-07-18T15:30:46;5.50;;;5.10;;
4089;SDS011;2059;48.538;12.146;2022-07-18T15:35:48;5.70;;;4.60;;
4089;SDS011;2059;48.538;12.146;2022-07-18T15:40:51;5.73;;;5.43;;
4089;SDS011;2059;48.538;12.146;2022-07-18T15:45:53;5.77;;;5.57;;
4089;SDS011;2059;48.538;12.146;2022-07-18T15:50:55;5.60;;;5.13;;
4089;SDS011;2059;48.538;12.146;2022-07-18T15:55:58;6.10;;;5.70;;
4089;SDS011;2059;48.538;12.146;2022-07-18T16:01:00;3.70;;;3.50;;
4089;SDS011;2059;48.538;12.146;2022-07-18T16:06:02;6.00;;;5.70;;
4089;SDS011;2059;48.538;12.146;2022-07-18T16:11:05;6.27;;;5.63;;
4089;SDS011;2059;48.538;12.146;2022-07-18T16:16:07;6.43;;;6.03;;
4089;SDS011;2059;48.538;12.146;2022-07-18T16:21:09;5.80;;;5.50;;
4089;SDS011;2059;48.538;12.146;2022-07-18T16:26:12;6.20;;;5.60;;
4089;SDS011;2059;48.538;12.146;2022-07-18T16:31:14;7.07;;;4.60;;
4089;SDS011;2059;48.538;12.146;2022-07-18T16:36:16;5.90;;;5.60;;
4089;SDS011;2059;48.538;12.146;2022-07-18T16:41:19;4.57;;;4.37;;
4089;SDS011;2059;48.538;12.146;2022-07-18T16:46:21;5.10;;;4.70;;
4089;SDS011;2059;48.538;12.146;2022-07-18T16:51:23;4.63;;;4.33;;
4089;SDS011;2059;48.538;12.146;2022-07-18T16:56:28;4.50;;;3.30;;
4089;SDS011;2059;48.538;12.146;2022-07-18T17:01:30;3.83;;;3.63;;
4089;SDS011;2059;48.538;12.146;2022-07-18T17:06:32;3.57;;;3.43;;
4089;SDS011;2059;48.538;12.146;2022-07-18T17:11:36;3.73;;;3.43;;
4089;SDS011;2059;48.538;12.146;2022-07-18T17:16:38;5.90;;;3.87;;
4089;SDS011;2059;48.538;12.146;2022-07-18T17:21:40;6.20;;;5.60;;
4089;SDS011;2059;48.538;12.146;2022-07-18T17:26:44;3.67;;;3.47;;
4089;SDS011;2059;48.538;12.146;2022-07-18T17:31:49;3.83;;;3.53;;
4089;SDS011;2059;48.538;12.146;2022-07-18T17:36:54;4.10;;;3.90;;
4089;SDS011;2059;48.538;12.146;2022-07-18T17:41:58;5.47;;;5.07;;
4089;SDS011;2059;48.538;12.146;2022-07-18T17:47:00;5.87;;;5.37;;
4089;SDS011;2059;48.538;12.146;2022-07-18T17:52:02;3.83;;;3.53;;
4089;SDS011;2059;48.538;12.146;2022-07-18T17:57:09;4.67;;;3.70;;
4089;SDS011;2059;48.538;12.146;2022-07-18T18:02:11;3.63;;;3.33;;
4089;SDS011;2059;48.538;12.146;2022-07-18T18:07:13;5.77;;;5.47;;
4089;SDS011;2059;48.538;12.146;2022-07-18T18:12:16;4.50;;;4.20;;
4089;SDS011;2059;48.538;12.146;2022-07-18T18:17:20;5.63;;;3.53;;
4089;SDS011;2059;48.538;12.146;2022-07-18T18:22:22;4.00;;;3.70;;
4089;SDS011;2059;48.538;12.146;2022-07-18T18:27:26;3.90;;;3.60;;
4089;SDS011;2059;48.538;12.146;2022-07-18T18:32:28;4.10;;;3.83;;
4089;SDS011;2059;48.538;12.146;2022-07-18T18:37:30;7.83;;;3.47;;
4089;SDS011;2059;48.538;12.146;2022-07-18T18:42:33;4.20;;;3.60;;
4089;SDS011;2059;48.538;12.146;2022-07-18T18:47:37;3.80;;;3.53;;
4089;SDS011;2059;48.538;12.146;2022-07-18T18:52:40;7.60;;;4.80;;
4089;SDS011;2059;48.538;12.146;2022-07-18T18:57:44;5.10;;;4.80;;
4089;SDS011;2059;48.538;12.146;2022-07-18T19:02:48;8.33;;;5.40;;
4089;SDS011;2059;48.538;12.146;2022-07-18T19:07:51;3.97;;;3.53;;
4089;SDS011;2059;48.538;12.146;2022-07-18T19:12:54;5.10;;;3.37;;
4089;SDS011;2059;48.538;12.146;2022-07-18T19:17:56;4.27;;;3.97;;
4089;SDS011;2059;48.538;12.146;2022-07-18T19:22:58;6.00;;;5.60;;
4089;SDS011;2059;48.538;12.146;2022-07-18T19:28:01;4.00;;;3.47;;
4089;SDS011;2059;48.538;12.146;2022-07-18T19:33:03;4.03;;;3.63;;
4089;SDS011;2059;48.538;12.146;2022-07-18T19:38:05;3.60;;;3.40;;
4089;SDS011;2059;48.538;12.146;2022-07-18T19:43:09;4.97;;;4.67;;
4089;SDS011;2059;48.538;12.146;2022-07-18T19:48:12;5.10;;;4.80;;
4089;SDS011;2059;48.538;12.146;2022-07-18T19:53:14;4.73;;;4.43;;
4089;SDS011;2059;48.538;12.146;2022-07-18T19:58:17;5.23;;;4.93;;
4089;SDS011;2059;48.538;12.146;2022-07-18T20:03:19;4.00;;;3.70;;
4089;SDS011;2059;48.538;12.146;2022-07-18T20:08:21;3.70;;;3.50;;
4089;SDS011;2059;48.538;12.146;2022-07-18T20:13:25;8.53;;;4.83;;
4089;SDS011;2059;48.538;12.146;2022-07-18T20:24:00;6.43;;;3.40;;
4089;SDS011;2059;48.538;12.146;2022-07-18T20:29:04;5.50;;;5.00;;
4089;SDS011;2059;48.538;12.146;2022-07-18T20:39:09;3.90;;;3.60;;
4089;SDS011;2059;48.538;12.146;2022-07-18T20:44:13;3.93;;;3.43;;
4089;SDS011;2059;48.538;12.146;2022-07-18T20:49:15;3.77;;;3.37;;
4089;SDS011;2059;48.538;12.146;2022-07-18T20:54:16;5.33;;;4.10;;
4089;SDS011;2059;48.538;12.146;2022-07-18T20:59:19;4.43;;;4.00;;
4089;SDS011;2059;48.538;12.146;2022-07-18T21:04:21;5.50;;;4.80;;
4089;SDS011;2059;48.538;12.146;2022-07-18T21:09:23;6.43;;;5.97;;
4089;SDS011;2059;48.538;12.146;2022-07-18T21:14:26;4.93;;;4.10;;
4089;SDS011;2059;48.538;12.146;2022-07-18T21:19:45;5.10;;;4.50;;
4089;SDS011;2059;48.538;12.146;2022-07-18T21:24:47;6.40;;;5.70;;
4089;SDS011;2059;48.538;12.146;2022-07-18T21:29:52;7.23;;;5.40;;
4089;SDS011;2059;48.538;12.146;2022-07-18T21:34:54;6.20;;;5.80;;
4089;SDS011;2059;48.538;12.146;2022-07-18T21:39:55;6.03;;;5.30;;
4089;SDS011;2059;48.538;12.146;2022-07-18T21:44:59;4.60;;;4.20;;
4089;SDS011;2059;48.538;12.146;2022-07-18T21:50:00;4.50;;;4.20;;
4089;SDS011;2059;48.538;12.146;2022-07-18T21:55:03;4.07;;;3.77;;
4089;SDS011;2059;48.538;12.146;2022-07-18T22:00:09;4.20;;;3.80;;
4089;SDS011;2059;48.538;12.146;2022-07-18T22:05:13;7.77;;;4.33;;
4089;SDS011;2059;48.538;12.146;2022-07-18T22:10:14;4.30;;;3.47;;
4089;SDS011;2059;48.538;12.146;2022-07-18T22:15:17;6.43;;;4.23;;
4089;SDS011;2059;48.538;12.146;2022-07-18T22:20:19;10.70;;;4.10;;
4089;SDS011;2059;48.538;12.146;2022-07-18T22:25:23;4.83;;;3.90;;
4089;SDS011;2059;48.538;12.146;2022-07-18T22:30:26;4.37;;;3.90;;
4089;SDS011;2059;48.538;12.146;2022-07-18T22:35:28;4.00;;;3.67;;
4089;SDS011;2059;48.538;12.146;2022-07-18T22:40:30;8.70;;;4.13;;
4089;SDS011;2059;48.538;12.146;2022-07-18T22:45:33;6.10;;;4.10;;
4089;SDS011;2059;48.538;12.146;2022-07-18T22:50:35;4.23;;;3.83;;
4089;SDS011;2059;48.538;12.146;2022-07-18T22:55:37;5.33;;;4.70;;
4089;SDS011;2059;48.538;12.146;2022-07-18T23:00:40;4.57;;;4.17;;
4089;SDS011;2059;48.538;12.146;2022-07-18T23:05:42;5.20;;;3.90;;
4089;SDS011;2059;48.538;12.146;2022-07-18T23:10:44;5.17;;;4.17;;
4089;SDS011;2059;48.538;12.146;2022-07-18T23:15:48;5.10;;;4.17;;
4089;SDS011;2059;48.538;12.146;2022-07-18T23:20:50;4.40;;;4.10;;
4089;SDS011;2059;48.538;12.146;2022-07-18T23:25:51;8.40;;;4.10;;
4089;SDS011;2059;48.538;12.146;2022-07-18T23:30:54;5.10;;;4.30;;
4089;SDS011;2059;48.538;12.146;2022-07-18T23:35:56;6.37;;;5.80;;
4089;SDS011;2059;48.538;12.146;2022-07-18T23:40:58;6.03;;;5.07;;
4089;SDS011;2059;48.538;12.146;2022-07-18T23:46:01;5.80;;;5.13;;
4089;SDS011;2059;48.538;12.146;2022-07-18T23:51:03;5.90;;;5.37;;
4089;SDS011;2059;48.538;12.146;2022-07-18T23:56:06;5.20;;;3.90;;
